Aviation Digital Data Service (ADDS)

Output produced by TAFs form (2113 UTC 20 November 2017)
found at http://www.aviationweather.gov/adds/tafs/
 
KSTC 201720Z 2018/2118 18010KT P6SM BKN200 
     FM202200 22010KT P6SM BKN200 
     FM210200 25010KT P6SM BKN250 
     FM210500 29014G21KT P6SM SCT200 
     FM210800 30020G28KT P6SM OVC050 
     FM211500 32019G30KT P6SM SCT150